createdAt,value
2017-05-13T00:01:31.474Z,18.10
2017-05-13T00:04:01.109Z,18.00
2017-05-13T00:06:30.173Z,18.10
2017-05-13T00:08:59.857Z,18.10
2017-05-13T00:11:28.778Z,18.10
2017-05-13T00:13:58.451Z,18.00
2017-05-13T00:16:27.411Z,17.90
2017-05-13T00:18:56.523Z,17.90
2017-05-13T00:21:25.423Z,17.80
2017-05-13T00:23:54.330Z,17.80
2017-05-13T00:26:23.345Z,17.70
2017-05-13T00:28:53.055Z,17.70
2017-05-13T00:31:21.958Z,17.70
2017-05-13T00:33:51.019Z,17.80
2017-05-13T00:36:19.939Z,17.70
2017-05-13T00:38:48.835Z,17.70
2017-05-13T00:41:17.772Z,17.70
2017-05-13T00:43:46.681Z,17.60
2017-05-13T00:46:15.605Z,17.60
2017-05-13T00:48:44.551Z,17.60
2017-05-13T00:51:14.866Z,17.60
2017-05-13T00:53:43.819Z,17.60
2017-05-13T00:56:12.726Z,17.60
2017-05-13T00:58:42.372Z,17.60
2017-05-13T01:01:11.294Z,17.50
2017-05-13T01:03:40.196Z,17.40
2017-05-13T01:06:09.122Z,17.40
2017-05-13T01:08:38.786Z,17.40
2017-05-13T01:11:07.694Z,17.40
2017-05-13T01:13:36.609Z,17.50
2017-05-13T01:16:06.257Z,17.40
2017-05-13T01:18:35.160Z,17.50
2017-05-13T01:21:04.053Z,17.40
2017-05-13T01:23:32.990Z,17.40
2017-05-13T01:26:01.893Z,17.30
2017-05-13T01:28:31.554Z,17.20
2017-05-13T01:31:00.521Z,17.30
2017-05-13T01:33:29.427Z,17.20
2017-05-13T01:35:58.345Z,17.20
2017-05-13T01:38:27.407Z,17.10
2017-05-13T01:40:56.471Z,17.10
2017-05-13T01:43:25.370Z,17.00
2017-05-13T01:45:55.054Z,17.00
2017-05-13T01:48:23.959Z,17.10
2017-05-13T01:50:53.683Z,17.10
2017-05-13T01:53:22.574Z,17.20
2017-05-13T01:55:51.483Z,17.20
2017-05-13T01:58:20.407Z,17.10
2017-05-13T02:00:49.347Z,17.10
2017-05-13T02:03:18.258Z,17.10
2017-05-13T02:05:47.230Z,17.00
2017-05-13T02:08:16.162Z,17.00
2017-05-13T02:10:45.078Z,17.00
2017-05-13T02:13:13.987Z,16.90
2017-05-13T02:15:43.722Z,16.70
2017-05-13T02:18:12.622Z,16.70
2017-05-13T02:20:41.563Z,16.70
2017-05-13T02:23:10.491Z,16.70
2017-05-13T02:25:39.395Z,16.70
2017-05-13T02:28:08.294Z,16.60
2017-05-13T02:30:37.251Z,16.50
2017-05-13T02:33:06.893Z,16.40
2017-05-13T02:35:35.798Z,16.50
2017-05-13T02:38:04.751Z,16.50
2017-05-13T02:40:34.393Z,16.50
2017-05-13T02:43:03.443Z,16.60
2017-05-13T02:45:33.115Z,16.60
2017-05-13T02:48:02.005Z,16.70
2017-05-13T02:53:06.982Z,16.70
2017-05-13T02:55:36.621Z,16.80
2017-05-13T02:58:05.553Z,16.80
2017-05-13T03:00:34.491Z,16.90
2017-05-13T03:03:04.882Z,16.80
2017-05-13T03:05:33.785Z,16.90
2017-05-13T03:08:02.799Z,16.90
2017-05-13T03:10:32.438Z,16.80
2017-05-13T03:13:01.360Z,16.90
2017-05-13T03:15:30.303Z,16.90
2017-05-13T03:17:59.226Z,16.90
2017-05-13T03:20:28.950Z,16.90
2017-05-13T03:22:57.872Z,16.90
2017-05-13T03:25:27.538Z,16.90
2017-05-13T03:27:58.035Z,16.80
2017-05-13T03:30:26.960Z,16.90
2017-05-13T03:32:55.870Z,16.90
2017-05-13T03:35:24.990Z,17.00
2017-05-13T03:37:53.899Z,17.00
2017-05-13T03:40:22.835Z,17.10
2017-05-13T03:42:51.728Z,17.10
2017-05-13T03:45:20.621Z,17.10
2017-05-13T03:47:49.555Z,17.10
2017-05-13T03:50:18.454Z,17.20
2017-05-13T03:52:47.356Z,17.20
2017-05-13T03:55:16.267Z,17.10
2017-05-13T03:57:45.922Z,17.00
2017-05-13T04:00:14.818Z,17.10
2017-05-13T04:02:43.760Z,17.20
2017-05-13T04:05:13.390Z,17.10
2017-05-13T04:07:42.279Z,17.20
2017-05-13T04:10:11.212Z,17.20
2017-05-13T04:12:40.106Z,17.20
2017-05-13T04:15:09.011Z,17.20
2017-05-13T04:17:38.730Z,17.20
2017-05-13T04:20:08.388Z,17.30
2017-05-13T04:22:37.291Z,17.40
2017-05-13T04:25:06.204Z,17.50
2017-05-13T04:27:35.099Z,17.60
2017-05-13T04:30:03.990Z,17.60
2017-05-13T04:32:32.939Z,17.60
2017-05-13T04:35:02.570Z,17.60
2017-05-13T04:37:31.494Z,17.80
2017-05-13T04:40:00.416Z,17.90
2017-05-13T04:42:30.059Z,17.90
2017-05-13T04:44:58.961Z,18.00
2017-05-13T04:47:27.876Z,18.00
2017-05-13T04:49:56.766Z,17.90
2017-05-13T04:52:25.702Z,17.80
2017-05-13T04:54:54.605Z,17.70
2017-05-13T04:57:24.217Z,17.60
2017-05-13T04:59:53.122Z,17.50
2017-05-13T05:02:22.037Z,17.50
2017-05-13T05:04:50.969Z,17.40
2017-05-13T05:07:20.621Z,17.30
2017-05-13T05:09:49.562Z,17.40
2017-05-13T05:12:19.191Z,17.40
2017-05-13T05:14:48.094Z,17.50
2017-05-13T05:17:17.062Z,17.60
2017-05-13T05:19:46.711Z,17.70
2017-05-13T05:22:15.606Z,17.80
2017-05-13T05:24:44.536Z,17.80
2017-05-13T05:27:14.217Z,17.90
2017-05-13T05:29:43.229Z,18.00
2017-05-13T05:32:12.119Z,18.00
2017-05-13T05:34:41.027Z,18.00
2017-05-13T05:37:09.917Z,18.00
2017-05-13T05:39:38.873Z,18.00
2017-05-13T05:42:07.783Z,18.00
2017-05-13T05:44:36.674Z,18.00
2017-05-13T05:47:05.768Z,18.00
2017-05-13T05:49:34.665Z,18.10
2017-05-13T05:52:03.551Z,18.20
2017-05-13T05:54:32.449Z,18.40
2017-05-13T05:57:01.437Z,18.70
2017-05-13T05:59:30.327Z,19.00
2017-05-13T06:01:59.388Z,19.30
2017-05-13T06:04:28.289Z,19.30
2017-05-13T06:06:57.415Z,19.40
2017-05-13T06:09:26.290Z,19.50
2017-05-13T06:11:55.191Z,19.70
2017-05-13T06:14:24.134Z,19.90
2017-05-13T06:16:53.042Z,20.00
2017-05-13T06:19:21.923Z,20.30
2017-05-13T06:21:50.884Z,20.40
2017-05-13T06:24:20.546Z,20.40
2017-05-13T06:26:50.038Z,20.40
2017-05-13T06:29:18.965Z,20.20
2017-05-13T06:31:48.613Z,20.20
2017-05-13T06:34:17.518Z,20.40
2017-05-13T06:36:46.551Z,20.30
2017-05-13T06:39:16.235Z,20.20
2017-05-13T06:41:45.143Z,20.40
2017-05-13T06:44:14.030Z,20.20
2017-05-13T06:46:42.961Z,20.20
2017-05-13T06:49:11.939Z,20.20
2017-05-13T06:51:41.572Z,20.30
2017-05-13T06:54:10.489Z,20.20
2017-05-13T06:56:39.451Z,20.30
2017-05-13T06:59:09.286Z,20.50
2017-05-13T07:01:38.200Z,20.60
2017-05-13T07:04:07.135Z,20.80
2017-05-13T07:06:36.061Z,20.90
2017-05-13T07:09:04.963Z,21.00
2017-05-13T07:11:34.494Z,20.80
2017-05-13T07:14:03.379Z,20.70
2017-05-13T07:16:32.338Z,20.70
2017-05-13T07:19:01.243Z,20.60
2017-05-13T07:21:30.166Z,20.40
2017-05-13T07:23:59.098Z,20.40
2017-05-13T07:26:28.007Z,20.60
2017-05-13T07:28:56.916Z,20.70
2017-05-13T07:31:25.978Z,20.60
2017-05-13T07:33:54.929Z,20.80
2017-05-13T07:36:24.806Z,20.70
2017-05-13T07:38:53.865Z,20.60
2017-05-13T07:41:23.535Z,20.30
2017-05-13T07:43:52.457Z,20.40
2017-05-13T07:46:22.128Z,20.70
2017-05-13T07:48:51.057Z,21.20
2017-05-13T07:51:20.734Z,21.40
2017-05-13T07:53:49.666Z,21.30
2017-05-13T07:56:18.610Z,21.20
2017-05-13T07:58:47.601Z,21.40
2017-05-13T08:01:16.553Z,21.70
2017-05-13T08:03:45.451Z,21.60
2017-05-13T08:06:14.381Z,21.70
2017-05-13T08:08:44.658Z,21.60
2017-05-13T08:11:13.562Z,21.50
2017-05-13T08:13:42.491Z,21.60
2017-05-13T08:16:11.419Z,21.70
2017-05-13T08:18:40.329Z,22.00
2017-05-13T08:21:09.297Z,22.20
2017-05-13T08:23:38.194Z,22.40
2017-05-13T08:26:07.119Z,22.30
2017-05-13T08:28:36.064Z,21.90
2017-05-13T08:31:07.774Z,21.90
2017-05-13T08:33:36.673Z,21.90
2017-05-13T08:36:05.632Z,21.80
2017-05-13T08:38:34.539Z,22.00
2017-05-13T08:41:03.465Z,22.30
2017-05-13T08:43:32.368Z,22.50
2017-05-13T08:46:01.295Z,22.90
2017-05-13T08:48:30.210Z,22.90
2017-05-13T08:50:59.269Z,23.00
2017-05-13T08:53:28.899Z,23.40
2017-05-13T08:55:57.812Z,23.40
2017-05-13T08:58:26.760Z,23.50
2017-05-13T09:00:56.357Z,24.20
2017-05-13T09:03:26.028Z,24.70
2017-05-13T09:05:54.934Z,24.60
2017-05-13T09:08:23.855Z,24.20
2017-05-13T09:10:53.526Z,23.70
2017-05-13T09:13:22.435Z,23.80
2017-05-13T09:15:51.555Z,24.50
2017-05-13T09:18:20.448Z,26.10
2017-05-13T09:20:49.353Z,28.30
2017-05-13T09:23:18.294Z,28.70
2017-05-13T09:25:47.202Z,30.60
2017-05-13T09:28:16.868Z,30.70
2017-05-13T09:30:45.816Z,30.40
2017-05-13T09:33:14.700Z,30.80
2017-05-13T09:35:43.632Z,29.90
2017-05-13T09:38:13.403Z,29.60
2017-05-13T09:40:42.453Z,29.30
2017-05-13T09:43:11.385Z,29.80
2017-05-13T09:45:40.300Z,31.50
2017-05-13T09:48:09.309Z,32.80
2017-05-13T09:50:39.011Z,33.80
2017-05-13T09:53:07.940Z,35.10
2017-05-13T09:55:36.848Z,34.70
2017-05-13T09:58:05.791Z,32.50
2017-05-13T10:00:35.471Z,29.30
2017-05-13T10:03:04.490Z,27.40
2017-05-13T10:05:33.405Z,25.80
2017-05-13T10:08:02.302Z,23.80
2017-05-13T10:10:31.219Z,22.90
2017-05-13T10:13:00.144Z,23.10
2017-05-13T10:15:29.073Z,23.40
2017-05-13T10:17:57.968Z,23.70
2017-05-13T10:20:26.868Z,23.40
2017-05-13T10:22:55.833Z,25.30
2017-05-13T10:25:25.486Z,29.20
2017-05-13T10:27:54.373Z,32.40
2017-05-13T10:30:23.304Z,33.30
2017-05-13T10:32:52.217Z,33.40
2017-05-13T10:35:21.892Z,31.90
2017-05-13T10:37:50.834Z,32.20
2017-05-13T10:40:20.464Z,32.30
2017-05-13T10:42:49.397Z,31.90
2017-05-13T10:45:18.333Z,32.00
2017-05-13T10:47:48.006Z,32.50
2017-05-13T10:50:16.905Z,34.20
2017-05-13T10:52:46.578Z,34.40
2017-05-13T10:55:15.494Z,34.00
2017-05-13T10:57:44.388Z,34.60
2017-05-13T11:00:13.322Z,34.40
2017-05-13T11:02:42.214Z,34.90
2017-05-13T11:05:11.197Z,34.60
2017-05-13T11:07:40.842Z,33.70
2017-05-13T11:10:09.764Z,33.00
2017-05-13T11:12:39.416Z,33.90
2017-05-13T11:15:08.355Z,35.00
2017-05-13T11:17:37.232Z,36.00
2017-05-13T11:20:06.176Z,37.20
2017-05-13T11:22:35.900Z,38.30
2017-05-13T11:25:04.801Z,38.40
2017-05-13T11:27:33.730Z,35.70
2017-05-13T11:30:02.615Z,36.70
2017-05-13T11:32:31.542Z,36.60
2017-05-13T11:35:00.429Z,38.20
2017-05-13T11:37:29.315Z,38.00
2017-05-13T11:39:58.266Z,38.80
2017-05-13T11:42:27.166Z,37.70
2017-05-13T11:44:56.075Z,35.50
2017-05-13T11:47:25.014Z,33.40
2017-05-13T11:49:54.111Z,31.30
2017-05-13T11:52:23.015Z,31.00
2017-05-13T11:54:51.938Z,32.00
2017-05-13T11:57:20.839Z,33.60
2017-05-13T11:59:49.738Z,35.00
2017-05-13T12:02:18.989Z,35.30
2017-05-13T12:04:48.616Z,34.00
2017-05-13T12:07:17.501Z,32.40
2017-05-13T12:09:46.557Z,30.70
2017-05-13T12:12:15.446Z,29.10
2017-05-13T12:14:45.094Z,29.50
2017-05-13T12:17:14.042Z,31.80
2017-05-13T12:19:43.671Z,33.00
2017-05-13T12:22:12.579Z,31.30
2017-05-13T12:24:41.531Z,29.50
2017-05-13T12:27:11.192Z,28.70
2017-05-13T12:29:40.077Z,28.10
2017-05-13T12:32:09.020Z,27.90
2017-05-13T12:34:37.918Z,27.70
2017-05-13T12:37:06.840Z,27.20
2017-05-13T12:39:36.553Z,26.80
2017-05-13T12:42:06.214Z,26.80
2017-05-13T12:44:35.119Z,27.00
2017-05-13T12:47:04.129Z,27.30
2017-05-13T12:49:32.986Z,27.10
2017-05-13T12:52:01.884Z,26.90
2017-05-13T12:54:30.829Z,26.90
2017-05-13T12:56:59.726Z,26.80
2017-05-13T12:59:28.638Z,26.90
2017-05-13T13:01:57.755Z,26.50
2017-05-13T13:04:26.669Z,26.30
2017-05-13T13:06:56.331Z,26.40
2017-05-13T13:09:25.631Z,26.60
2017-05-13T13:11:54.549Z,25.90
2017-05-13T13:14:23.442Z,25.50
2017-05-13T13:16:52.442Z,25.40
2017-05-13T13:19:21.335Z,25.30
2017-05-13T13:21:50.234Z,25.10
2017-05-13T13:24:19.963Z,24.80
2017-05-13T13:26:49.610Z,24.60
2017-05-13T13:29:18.568Z,24.90
2017-05-13T13:31:47.465Z,25.10
2017-05-13T13:34:16.370Z,25.40
2017-05-13T13:36:45.294Z,25.50
2017-05-13T13:39:15.081Z,25.20
2017-05-13T13:41:44.023Z,25.40
2017-05-13T13:44:12.970Z,24.90
2017-05-13T13:46:41.886Z,24.60
2017-05-13T13:49:10.804Z,24.60
2017-05-13T13:51:39.750Z,24.70
2017-05-13T13:54:08.714Z,25.30
2017-05-13T13:56:38.371Z,26.00
2017-05-13T13:59:07.266Z,26.10
2017-05-13T14:01:36.190Z,26.10
2017-05-13T14:04:05.845Z,25.50
2017-05-13T14:06:34.771Z,25.30
2017-05-13T14:09:03.684Z,25.20
2017-05-13T14:11:33.343Z,25.70
2017-05-13T14:14:02.274Z,26.00
2017-05-13T14:16:31.946Z,26.10
2017-05-13T14:19:00.871Z,26.30
2017-05-13T14:21:29.834Z,26.20
2017-05-13T14:23:58.743Z,25.90
2017-05-13T14:26:27.624Z,25.40
2017-05-13T14:28:56.567Z,25.30
2017-05-13T14:31:25.494Z,25.30
2017-05-13T14:33:54.395Z,25.30
2017-05-13T14:36:23.326Z,25.30
2017-05-13T14:38:52.488Z,24.80
2017-05-13T14:41:21.484Z,25.00
2017-05-13T14:43:50.418Z,25.50
2017-05-13T14:46:19.327Z,25.50
2017-05-13T14:48:48.270Z,25.90
2017-05-13T14:51:17.176Z,26.30
2017-05-13T14:53:46.069Z,26.60
2017-05-13T14:56:14.986Z,26.80
2017-05-13T14:58:43.893Z,27.00
2017-05-13T15:01:12.835Z,26.90
2017-05-13T15:03:41.728Z,26.60
2017-05-13T15:06:10.632Z,25.70
2017-05-13T15:08:40.366Z,25.50
2017-05-13T15:11:09.254Z,25.80
2017-05-13T15:13:38.197Z,26.10
2017-05-13T15:16:07.111Z,26.20
2017-05-13T15:18:36.770Z,26.40
2017-05-13T15:21:06.113Z,26.70
2017-05-13T15:23:35.025Z,27.00
2017-05-13T15:26:04.688Z,26.90
2017-05-13T15:28:33.629Z,26.70
2017-05-13T15:31:01.763Z,26.60
2017-05-13T15:33:30.703Z,25.80
2017-05-13T15:36:00.363Z,25.50
2017-05-13T15:38:29.306Z,25.30
2017-05-13T15:40:58.951Z,24.90
2017-05-13T15:43:27.868Z,24.90
2017-05-13T15:45:56.789Z,25.00
2017-05-13T15:48:25.696Z,25.10
2017-05-13T15:50:54.622Z,25.30
2017-05-13T15:53:23.558Z,25.10
2017-05-13T15:55:53.430Z,25.20
2017-05-13T15:58:22.646Z,25.30
2017-05-13T16:00:51.587Z,25.30
2017-05-13T16:03:20.501Z,25.20
2017-05-13T16:05:49.457Z,25.20
2017-05-13T16:08:19.119Z,24.80
2017-05-13T16:10:48.007Z,24.80
2017-05-13T16:13:16.956Z,25.00
2017-05-13T16:15:45.896Z,25.00
2017-05-13T16:18:15.762Z,24.70
2017-05-13T16:20:44.680Z,24.40
2017-05-13T16:23:13.579Z,24.50
2017-05-13T16:25:42.490Z,24.70
2017-05-13T16:28:11.403Z,24.80
2017-05-13T16:30:42.398Z,24.90
2017-05-13T16:33:11.339Z,25.00
2017-05-13T16:35:41.007Z,25.00
2017-05-13T16:38:10.017Z,25.20
2017-05-13T16:40:38.944Z,25.10
2017-05-13T16:43:08.619Z,24.80
2017-05-13T16:45:37.526Z,24.70
2017-05-13T16:48:06.446Z,24.30
2017-05-13T16:50:35.438Z,24.00
2017-05-13T16:53:04.430Z,23.90
2017-05-13T16:55:33.366Z,23.80
2017-05-13T16:58:02.347Z,23.70
2017-05-13T17:00:31.255Z,23.80
2017-05-13T17:03:00.258Z,23.70
2017-05-13T17:05:29.181Z,23.80
2017-05-13T17:07:58.999Z,23.80
2017-05-13T17:10:28.009Z,23.90
2017-05-13T17:12:56.922Z,24.00
2017-05-13T17:15:25.838Z,24.10
2017-05-13T17:17:54.822Z,24.00
2017-05-13T17:20:23.814Z,24.00
2017-05-13T17:22:52.751Z,24.00
2017-05-13T17:25:23.216Z,24.00
2017-05-13T17:27:52.319Z,24.10
2017-05-13T17:30:21.852Z,23.90
2017-05-13T17:32:50.781Z,23.80
2017-05-13T17:35:19.699Z,23.90
2017-05-13T17:37:48.834Z,24.00
2017-05-13T17:40:17.824Z,24.10
2017-05-13T17:42:47.442Z,23.90
2017-05-13T17:45:16.351Z,23.90
2017-05-13T17:47:45.389Z,23.80
2017-05-13T17:50:15.237Z,23.80
2017-05-13T17:52:44.162Z,23.80
2017-05-13T17:55:13.118Z,23.80
2017-05-13T17:57:43.020Z,23.80
2017-05-13T18:00:11.924Z,23.90
2017-05-13T18:02:40.947Z,23.90
2017-05-13T18:05:09.894Z,23.90
2017-05-13T18:07:38.808Z,23.90
2017-05-13T18:10:07.759Z,23.80
2017-05-13T18:12:36.718Z,23.60
2017-05-13T18:15:05.785Z,23.60
2017-05-13T18:17:35.474Z,23.40
2017-05-13T18:20:04.363Z,23.40
2017-05-13T18:22:33.273Z,23.10
2017-05-13T18:25:02.197Z,22.90
2017-05-13T18:27:31.168Z,22.80
2017-05-13T18:30:00.079Z,22.80
2017-05-13T18:32:29.022Z,22.80
2017-05-13T18:34:58.679Z,22.70
2017-05-13T18:37:27.579Z,22.80
2017-05-13T18:39:56.494Z,22.80
2017-05-13T18:42:25.400Z,22.70
2017-05-13T18:44:55.061Z,22.50
2017-05-13T18:47:24.019Z,22.50
2017-05-13T18:49:53.812Z,22.50
2017-05-13T18:52:23.482Z,22.50
2017-05-13T18:54:53.306Z,22.60
2017-05-13T18:57:22.666Z,22.60
2017-05-13T18:59:51.649Z,22.60
2017-05-13T19:02:20.670Z,22.60
2017-05-13T19:04:49.550Z,22.60
2017-05-13T19:07:18.452Z,22.60
2017-05-13T19:09:47.382Z,22.60
2017-05-13T19:12:16.306Z,22.60
2017-05-13T19:14:45.245Z,22.60
2017-05-13T19:17:14.166Z,22.60
2017-05-13T19:19:43.113Z,22.60
2017-05-13T19:22:12.062Z,22.50
2017-05-13T19:24:41.761Z,22.30
2017-05-13T19:27:11.454Z,22.30
2017-05-13T19:29:40.362Z,22.30
2017-05-13T19:32:10.054Z,22.20
2017-05-13T19:34:38.996Z,22.10
2017-05-13T19:37:07.923Z,22.20
2017-05-13T19:39:36.854Z,22.30
2017-05-13T19:42:06.534Z,22.20
2017-05-13T19:44:35.488Z,22.30
2017-05-13T19:47:04.480Z,22.20
2017-05-13T19:49:34.193Z,22.10
2017-05-13T19:52:03.121Z,22.20
2017-05-13T19:54:32.088Z,22.10
2017-05-13T19:57:01.078Z,22.10
2017-05-13T19:59:29.994Z,21.90
2017-05-13T20:01:58.928Z,21.50
2017-05-13T20:04:28.589Z,21.10
2017-05-13T20:06:57.509Z,21.10
2017-05-13T20:09:27.184Z,20.90
2017-05-13T20:11:56.110Z,21.00
2017-05-13T20:14:25.841Z,20.80
2017-05-13T20:16:54.723Z,20.80
2017-05-13T20:19:24.422Z,20.60
2017-05-13T20:21:54.078Z,20.50
2017-05-13T20:24:23.026Z,20.60
2017-05-13T20:26:52.711Z,20.30
2017-05-13T20:29:21.664Z,20.10
2017-05-13T20:31:50.593Z,20.00
2017-05-13T20:34:19.472Z,20.00
2017-05-13T20:36:48.370Z,19.90
2017-05-13T20:39:17.307Z,19.90
2017-05-13T20:41:46.986Z,19.90
2017-05-13T20:44:15.944Z,20.00
2017-05-13T20:46:44.886Z,19.90
2017-05-13T20:49:13.808Z,19.90
2017-05-13T20:51:42.750Z,19.90
2017-05-13T20:54:11.700Z,19.70
2017-05-13T20:56:41.950Z,19.60
2017-05-13T20:59:10.873Z,19.70
2017-05-13T21:01:39.798Z,19.80
2017-05-13T21:04:09.507Z,19.70
2017-05-13T21:06:38.413Z,19.90
2017-05-13T21:09:07.340Z,20.00
2017-05-13T21:11:36.331Z,20.00
2017-05-13T21:14:05.241Z,20.10
2017-05-13T21:16:34.170Z,20.10
2017-05-13T21:19:03.154Z,20.10
2017-05-13T21:21:32.792Z,19.90
2017-05-13T21:24:01.702Z,19.90
2017-05-13T21:26:30.610Z,19.90
2017-05-13T21:28:59.582Z,19.90
2017-05-13T21:31:28.491Z,19.90
2017-05-13T21:33:57.434Z,20.00
2017-05-13T21:36:26.336Z,20.00
2017-05-13T21:38:55.248Z,20.00
2017-05-13T21:41:24.174Z,19.90
2017-05-13T21:43:53.090Z,19.80
2017-05-13T21:46:22.820Z,19.90
2017-05-13T21:48:51.762Z,19.90
2017-05-13T21:51:20.684Z,20.00
2017-05-13T21:53:50.328Z,20.00
2017-05-13T21:56:19.376Z,20.00
2017-05-13T21:58:48.270Z,20.10
2017-05-13T22:01:17.938Z,20.00
2017-05-13T22:03:46.851Z,19.80
2017-05-13T22:06:15.784Z,19.30
2017-05-13T22:08:45.344Z,18.90
2017-05-13T22:11:14.291Z,18.70
2017-05-13T22:13:43.995Z,18.30
2017-05-13T22:16:12.939Z,18.10
2017-05-13T22:18:41.845Z,17.90
2017-05-13T22:21:10.789Z,17.80
2017-05-13T22:23:39.865Z,17.70
2017-05-13T22:26:09.483Z,17.70
2017-05-13T22:28:38.393Z,17.70
2017-05-13T22:31:07.344Z,17.70
2017-05-13T22:33:36.287Z,17.80
2017-05-13T22:36:05.335Z,17.80
2017-05-13T22:38:34.334Z,17.80
2017-05-13T22:41:03.242Z,17.70
2017-05-13T22:43:32.170Z,17.50
2017-05-13T22:46:01.171Z,17.30
2017-05-13T22:48:30.053Z,17.10
2017-05-13T22:50:58.982Z,17.00
2017-05-13T22:53:28.659Z,17.00
2017-05-13T22:55:57.561Z,17.10
2017-05-13T22:58:27.226Z,17.00
2017-05-13T23:00:56.163Z,17.00
2017-05-13T23:03:25.888Z,16.90
2017-05-13T23:05:54.776Z,16.90
2017-05-13T23:08:24.488Z,16.80
2017-05-13T23:10:54.139Z,16.80
2017-05-13T23:13:23.063Z,16.70
2017-05-13T23:15:52.770Z,16.70
2017-05-13T23:18:21.789Z,16.80
2017-05-13T23:20:50.650Z,16.90
2017-05-13T23:23:19.574Z,16.90
2017-05-13T23:25:48.495Z,16.90
2017-05-13T23:28:17.404Z,17.00
2017-05-13T23:30:46.359Z,17.00
2017-05-13T23:33:15.249Z,17.10
2017-05-13T23:35:44.224Z,17.20
2017-05-13T23:38:13.113Z,17.20
2017-05-13T23:40:42.803Z,17.20
2017-05-13T23:43:11.758Z,17.20
2017-05-13T23:45:40.742Z,17.20
2017-05-13T23:48:09.612Z,17.20
2017-05-13T23:50:39.283Z,17.30
2017-05-13T23:53:08.182Z,17.40
2017-05-13T23:55:37.085Z,17.40
2017-05-13T23:58:06.050Z,17.40
